Donets'k, Ukraine
Current Conditions -  °F | °C
As of 4:30 AM on Thursday 23 Oct 2014 (Local Time) from URRR Reporting Station
Haze Haze  
Wind Chill: 44°   Ceiling: 300
Heat Index: 48°   Visibility: 1.1mi
Dew Point: 48°   Wind: 9mph
Humidity: 100%   Direction: 50°NE
Pressure: 29.91"   Gusts: NA
Location:  48.07°N, 37.77°E
Report Text: URRR 230130Z 05004MPS 1800 BR OVC003 09/09 Q1013 04110060 TEMPO0600 FG BKN002 RMK QBB100 MAST OBSC
Loading
Personal Weather Stations






























Interactive Weather Map
Tropical Storm Tracking
New forecast layout! Learn more

10-Day Weather Forecast

Advertisements
Track Severe Weather on mobile